Terminal Aerodrome Forecast
Issued by NWS Sterling, VA

Current Version | Previous Version | Graphics & Text | Print | Product List | Glossary On
Versions: 1 2 3 4 5 6 7 8 9 10 11 12 13 14 15 16 17 18 19 20 21 22 23 24
072
FTUS41 KLWX 170521
TAFIAD
TAF
KIAD 170521Z 1706/1812 28006KT P6SM BKN050
     FM171000 30006KT P6SM FEW200
     FM171500 31010KT P6SM FEW250
     FM172300 20004KT P6SM SCT150
     FM180900 18008KT P6SM BKN150=

USA.gov is the U.S. government's official web portal to all federal, state and local government web resources and services.